sensor_id;sensor_type;location;lat;lon;timestamp;pressure;altitude;pressure_sealevel;temperature;humidity
66021;BME280;52789;59.980;30.346;2023-04-04T00:01:34;102279.09;;;-1.18;100.00
66021;BME280;52789;59.980;30.346;2023-04-04T00:03:59;102280.91;;;-1.20;100.00
66021;BME280;52789;59.980;30.346;2023-04-04T00:06:24;102285.28;;;-1.21;100.00
66021;BME280;52789;59.980;30.346;2023-04-04T00:08:50;102281.00;;;-1.23;100.00
66021;BME280;52789;59.980;30.346;2023-04-04T00:11:15;102285.28;;;-1.21;100.00
66021;BME280;52789;59.980;30.346;2023-04-04T00:13:41;102274.81;;;-1.21;100.00
66021;BME280;52789;59.980;30.346;2023-04-04T00:16:06;102281.13;;;-1.27;100.00
66021;BME280;52789;59.980;30.346;2023-04-04T00:18:31;102264.78;;;-1.33;100.00
66021;BME280;52789;59.980;30.346;2023-04-04T00:20:57;102263.19;;;-1.37;100.00
66021;BME280;52789;59.980;30.346;2023-04-04T00:23:23;102276.00;;;-1.30;100.00
66021;BME280;52789;59.980;30.346;2023-04-04T00:25:49;102270.88;;;-1.33;100.00
66021;BME280;52789;59.980;30.346;2023-04-04T00:28:15;102273.44;;;-1.31;100.00
66021;BME280;52789;59.980;30.346;2023-04-04T00:30:41;102272.63;;;-1.33;100.00
66021;BME280;52789;59.980;30.346;2023-04-04T00:33:06;102270.75;;;-1.30;100.00
66021;BME280;52789;59.980;30.346;2023-04-04T00:35:32;102265.59;;;-1.31;100.00
66021;BME280;52789;59.980;30.346;2023-04-04T00:37:58;102263.81;;;-1.31;100.00
66021;BME280;52789;59.980;30.346;2023-04-04T00:40:23;102259.41;;;-1.29;100.00
66021;BME280;52789;59.980;30.346;2023-04-04T00:42:48;102255.06;;;-1.30;100.00
66021;BME280;52789;59.980;30.346;2023-04-04T00:45:14;102262.13;;;-1.32;100.00
66021;BME280;52789;59.980;30.346;2023-04-04T00:47:39;102262.28;;;-1.36;100.00
66021;BME280;52789;59.980;30.346;2023-04-04T00:50:07;102262.97;;;-1.31;100.00
66021;BME280;52789;59.980;30.346;2023-04-04T00:52:32;102264.84;;;-1.35;100.00
66021;BME280;52789;59.980;30.346;2023-04-04T00:54:58;102259.44;;;-1.30;100.00
66021;BME280;52789;59.980;30.346;2023-04-04T00:57:23;102251.66;;;-1.32;100.00
66021;BME280;52789;59.980;30.346;2023-04-04T00:59:49;102250.81;;;-1.32;100.00
66021;BME280;52789;59.980;30.346;2023-04-04T01:02:15;102253.56;;;-1.37;100.00
66021;BME280;52789;59.980;30.346;2023-04-04T01:04:40;102254.44;;;-1.36;100.00
66021;BME280;52789;59.980;30.346;2023-04-04T01:07:06;102256.25;;;-1.38;100.00
66021;BME280;52789;59.980;30.346;2023-04-04T01:09:32;102257.19;;;-1.41;100.00
66021;BME280;52789;59.980;30.346;2023-04-04T01:11:58;102261.56;;;-1.41;100.00
66021;BME280;52789;59.980;30.346;2023-04-04T01:14:23;102252.78;;;-1.39;100.00
66021;BME280;52789;59.980;30.346;2023-04-04T01:16:50;102247.50;;;-1.37;100.00
66021;BME280;52789;59.980;30.346;2023-04-04T01:19:32;102246.75;;;-1.41;100.00
66021;BME280;52789;59.980;30.346;2023-04-04T01:21:59;102255.44;;;-1.40;100.00
66021;BME280;52789;59.980;30.346;2023-04-04T01:24:25;102241.53;;;-1.41;100.00
66021;BME280;52789;59.980;30.346;2023-04-04T01:26:52;102238.91;;;-1.41;100.00
66021;BME280;52789;59.980;30.346;2023-04-04T01:29:18;102238.84;;;-1.39;100.00
66021;BME280;52789;59.980;30.346;2023-04-04T01:31:48;102232.94;;;-1.44;100.00
66021;BME280;52789;59.980;30.346;2023-04-04T01:37:02;102235.53;;;-1.44;100.00
66021;BME280;52789;59.980;30.346;2023-04-04T01:39:32;102238.06;;;-1.41;100.00
66021;BME280;52789;59.980;30.346;2023-04-04T01:41:59;102236.28;;;-1.41;100.00
66021;BME280;52789;59.980;30.346;2023-04-04T01:44:26;102235.72;;;-1.50;100.00
66021;BME280;52789;59.980;30.346;2023-04-04T01:46:53;102233.19;;;-1.53;100.00
66021;BME280;52789;59.980;30.346;2023-04-04T01:49:21;102232.41;;;-1.56;100.00
66021;BME280;52789;59.980;30.346;2023-04-04T01:51:48;102231.44;;;-1.53;100.00
66021;BME280;52789;59.980;30.346;2023-04-04T01:54:13;102229.63;;;-1.51;100.00
66021;BME280;52789;59.980;30.346;2023-04-04T01:56:39;102227.03;;;-1.51;100.00
66021;BME280;52789;59.980;30.346;2023-04-04T01:59:04;102222.69;;;-1.52;100.00
66021;BME280;52789;59.980;30.346;2023-04-04T02:01:35;102230.63;;;-1.55;100.00
66021;BME280;52789;59.980;30.346;2023-04-04T02:04:01;102226.38;;;-1.58;100.00
66021;BME280;52789;59.980;30.346;2023-04-04T02:06:27;102225.53;;;-1.58;100.00
66021;BME280;52789;59.980;30.346;2023-04-04T02:08:52;102224.78;;;-1.62;100.00
66021;BME280;52789;59.980;30.346;2023-04-04T02:11:17;102223.75;;;-1.58;100.00
66021;BME280;52789;59.980;30.346;2023-04-04T02:13:46;102225.16;;;-1.47;100.00
66021;BME280;52789;59.980;30.346;2023-04-04T02:16:11;102223.56;;;-1.51;100.00
66021;BME280;52789;59.980;30.346;2023-04-04T02:18:37;102216.72;;;-1.56;100.00
66021;BME280;52789;59.980;30.346;2023-04-04T02:21:02;102225.56;;;-1.60;100.00
66021;BME280;52789;59.980;30.346;2023-04-04T02:23:28;102218.63;;;-1.61;100.00
66021;BME280;52789;59.980;30.346;2023-04-04T02:25:53;102223.75;;;-1.58;100.00
66021;BME280;52789;59.980;30.346;2023-04-04T02:28:18;102208.88;;;-1.56;100.00
66021;BME280;52789;59.980;30.346;2023-04-04T02:30:44;102210.50;;;-1.51;100.00
66021;BME280;52789;59.980;30.346;2023-04-04T02:33:09;102205.28;;;-1.51;100.00
66021;BME280;52789;59.980;30.346;2023-04-04T02:35:34;102212.47;;;-1.58;100.00
66021;BME280;52789;59.980;30.346;2023-04-04T02:38:00;102218.44;;;-1.54;100.00
66021;BME280;52789;59.980;30.346;2023-04-04T02:40:26;102225.53;;;-1.58;100.00
66021;BME280;52789;59.980;30.346;2023-04-04T02:42:51;102216.19;;;-1.65;100.00
66021;BME280;52789;59.980;30.346;2023-04-04T02:45:16;102215.31;;;-1.66;100.00
66021;BME280;52789;59.980;30.346;2023-04-04T02:47:44;102221.16;;;-1.58;100.00
66021;BME280;52789;59.980;30.346;2023-04-04T02:50:13;102220.25;;;-1.57;100.00
66021;BME280;52789;59.980;30.346;2023-04-04T02:52:38;102212.47;;;-1.58;100.00
66021;BME280;52789;59.980;30.346;2023-04-04T02:55:04;102209.78;;;-1.57;100.00
66021;BME280;52789;59.980;30.346;2023-04-04T02:57:29;102207.19;;;-1.57;100.00
66021;BME280;52789;59.980;30.346;2023-04-04T02:59:55;102203.66;;;-1.56;100.00
66021;BME280;52789;59.980;30.346;2023-04-04T03:02:22;102207.88;;;-1.51;100.00
66021;BME280;52789;59.980;30.346;2023-04-04T03:04:47;102205.47;;;-1.58;100.00
66021;BME280;52789;59.980;30.346;2023-04-04T03:07:13;102206.28;;;-1.56;100.00
66021;BME280;52789;59.980;30.346;2023-04-04T03:09:38;102211.34;;;-1.51;100.00
66021;BME280;52789;59.980;30.346;2023-04-04T03:12:03;102207.97;;;-1.54;100.00
66021;BME280;52789;59.980;30.346;2023-04-04T03:14:29;102199.25;;;-1.53;100.00
66021;BME280;52789;59.980;30.346;2023-04-04T03:16:55;102208.72;;;-1.51;100.00
66021;BME280;52789;59.980;30.346;2023-04-04T03:19:20;102214.72;;;-1.47;100.00
66021;BME280;52789;59.980;30.346;2023-04-04T03:21:46;102206.91;;;-1.49;100.00
66021;BME280;52789;59.980;30.346;2023-04-04T03:24:12;102211.28;;;-1.49;100.00
66021;BME280;52789;59.980;30.346;2023-04-04T03:26:37;102209.44;;;-1.46;100.00
66021;BME280;52789;59.980;30.346;2023-04-04T03:29:03;102210.38;;;-1.48;100.00
66021;BME280;52789;59.980;30.346;2023-04-04T03:31:28;102206.06;;;-1.49;100.00
66021;BME280;52789;59.980;30.346;2023-04-04T03:33:54;102206.91;;;-1.49;100.00
66021;BME280;52789;59.980;30.346;2023-04-04T03:36:19;102201.56;;;-1.44;100.00
66021;BME280;52789;59.980;30.346;2023-04-04T03:38:45;102207.38;;;-1.36;100.00
66021;BME280;52789;59.980;30.346;2023-04-04T03:41:10;102208.25;;;-1.36;100.00
66021;BME280;52789;59.980;30.346;2023-04-04T03:43:35;102210.09;;;-1.39;100.00
66021;BME280;52789;59.980;30.346;2023-04-04T03:46:01;102206.66;;;-1.40;100.00
66021;BME280;52789;59.980;30.346;2023-04-04T03:48:28;102200.66;;;-1.43;100.00
66021;BME280;52789;59.980;30.346;2023-04-04T03:50:54;102209.34;;;-1.43;100.00
66021;BME280;52789;59.980;30.346;2023-04-04T03:53:20;102205.16;;;-1.48;100.00
66021;BME280;52789;59.980;30.346;2023-04-04T03:55:45;102207.66;;;-1.45;100.00
66021;BME280;52789;59.980;30.346;2023-04-04T03:58:11;102205.91;;;-1.43;100.00
66021;BME280;52789;59.980;30.346;2023-04-04T04:00:36;102199.72;;;-1.41;100.00
66021;BME280;52789;59.980;30.346;2023-04-04T04:03:01;102197.03;;;-1.39;100.00
66021;BME280;52789;59.980;30.346;2023-04-04T04:05:27;102201.19;;;-1.34;100.00
66021;BME280;52789;59.980;30.346;2023-04-04T04:07:52;102207.06;;;-1.27;100.00
66021;BME280;52789;59.980;30.346;2023-04-04T04:10:18;102204.47;;;-1.27;100.00
66021;BME280;52789;59.980;30.346;2023-04-04T04:12:43;102196.66;;;-1.29;100.00
66021;BME280;52789;59.980;30.346;2023-04-04T04:15:09;102199.38;;;-1.32;100.00
66021;BME280;52789;59.980;30.346;2023-04-04T04:17:37;102197.69;;;-1.33;100.00
66021;BME280;52789;59.980;30.346;2023-04-04T04:20:03;102192.03;;;-1.20;100.00
66021;BME280;52789;59.980;30.346;2023-04-04T04:22:29;102197.94;;;-1.14;100.00
66021;BME280;52789;59.980;30.346;2023-04-04T04:24:55;102195.38;;;-1.15;100.00
66021;BME280;52789;59.980;30.346;2023-04-04T04:27:20;102190.22;;;-1.18;100.00
66021;BME280;52789;59.980;30.346;2023-04-04T04:29:46;102191.06;;;-1.18;100.00
66021;BME280;52789;59.980;30.346;2023-04-04T04:32:14;102194.47;;;-1.16;100.00
66021;BME280;52789;59.980;30.346;2023-04-04T04:34:40;102188.22;;;-1.10;100.00
66021;BME280;52789;59.980;30.346;2023-04-04T04:37:05;102192.53;;;-1.09;100.00
66021;BME280;52789;59.980;30.346;2023-04-04T04:39:31;102183.16;;;-1.15;100.00
66021;BME280;52789;59.980;30.346;2023-04-04T04:41:57;102182.97;;;-1.10;100.00
66021;BME280;52789;59.980;30.346;2023-04-04T04:44:22;102175.81;;;-1.05;100.00
66021;BME280;52789;59.980;30.346;2023-04-04T04:46:48;102174.81;;;-1.01;100.00
66021;BME280;52789;59.980;30.346;2023-04-04T04:49:13;102178.78;;;-0.91;100.00
66021;BME280;52789;59.980;30.346;2023-04-04T04:51:39;102180.44;;;-0.88;100.00
66021;BME280;52789;59.980;30.346;2023-04-04T04:54:06;102176.72;;;-0.81;100.00
66021;BME280;52789;59.980;30.346;2023-04-04T04:56:32;102172.16;;;-0.76;100.00
66021;BME280;52789;59.980;30.346;2023-04-04T04:58:57;102175.69;;;-0.77;100.00
66021;BME280;52789;59.980;30.346;2023-04-04T05:01:22;102176.25;;;-0.69;100.00
66021;BME280;52789;59.980;30.346;2023-04-04T05:03:48;102175.84;;;-0.57;100.00
66021;BME280;52789;59.980;30.346;2023-04-04T05:06:14;102173.59;;;-0.68;100.00
66021;BME280;52789;59.980;30.346;2023-04-04T05:08:39;102174.00;;;-0.78;100.00
66021;BME280;52789;59.980;30.346;2023-04-04T05:11:04;102175.69;;;-0.77;100.00
66021;BME280;52789;59.980;30.346;2023-04-04T05:13:30;102168.66;;;-0.75;100.00
66021;BME280;52789;59.980;30.346;2023-04-04T05:15:55;102171.59;;;-0.61;100.00
66021;BME280;52789;59.980;30.346;2023-04-04T05:18:22;102164.22;;;-0.50;99.91
66021;BME280;52789;59.980;30.346;2023-04-04T05:20:51;102169.88;;;-0.39;99.94
66021;BME280;52789;59.980;30.346;2023-04-04T05:23:17;102161.69;;;-0.29;98.88
66021;BME280;52789;59.980;30.346;2023-04-04T05:25:42;102175.06;;;-0.37;98.03
66021;BME280;52789;59.980;30.346;2023-04-04T05:28:07;102175.06;;;-0.37;98.33
66021;BME280;52789;59.980;30.346;2023-04-04T05:30:33;102174.09;;;-0.35;98.36
66021;BME280;52789;59.980;30.346;2023-04-04T05:32:58;102170.25;;;-0.24;98.59
66021;BME280;52789;59.980;30.346;2023-04-04T05:35:24;102164.63;;;-0.15;98.48
66021;BME280;52789;59.980;30.346;2023-04-04T05:37:50;102160.97;;;-0.11;97.61
66021;BME280;52789;59.980;30.346;2023-04-04T05:40:15;102160.38;;;-0.18;97.02
66021;BME280;52789;59.980;30.346;2023-04-04T05:42:41;102163.28;;;-0.25;97.32
66021;BME280;52789;59.980;30.346;2023-04-04T05:45:08;102170.91;;;-0.19;97.47
66021;BME280;52789;59.980;30.346;2023-04-04T05:47:33;102166.47;;;-0.17;97.04
66021;BME280;52789;59.980;30.346;2023-04-04T05:49:59;102163.59;;;-0.11;97.51
66021;BME280;52789;59.980;30.346;2023-04-04T05:52:25;102162.44;;;-0.04;96.03
66021;BME280;52789;59.980;30.346;2023-04-04T05:54:50;102165.13;;;-0.06;96.97
66021;BME280;52789;59.980;30.346;2023-04-04T05:57:15;102165.19;;;-0.07;96.11
66021;BME280;52789;59.980;30.346;2023-04-04T05:59:41;102162.22;;;0.02;96.16
66021;BME280;52789;59.980;30.346;2023-04-04T06:02:06;102156.59;;;0.11;95.81
66021;BME280;52789;59.980;30.346;2023-04-04T06:04:32;102158.97;;;0.17;95.69
66021;BME280;52789;59.980;30.346;2023-04-04T06:06:57;102159.38;;;0.28;95.66
66021;BME280;52789;59.980;30.346;2023-04-04T06:09:23;102155.34;;;0.42;94.75
66021;BME280;52789;59.980;30.346;2023-04-04T06:11:49;102162.09;;;0.47;93.63
66021;BME280;52789;59.980;30.346;2023-04-04T06:14:14;102158.00;;;0.20;93.71
66021;BME280;52789;59.980;30.346;2023-04-04T06:16:39;102148.31;;;0.22;94.02
66021;BME280;52789;59.980;30.346;2023-04-04T06:19:05;102158.19;;;0.15;94.77
66021;BME280;52789;59.980;30.346;2023-04-04T06:21:30;102157.59;;;0.09;94.18
66021;BME280;52789;59.980;30.346;2023-04-04T06:23:56;102152.53;;;0.04;94.30
66021;BME280;52789;59.980;30.346;2023-04-04T06:26:21;102156.19;;;0.00;95.21
66021;BME280;52789;59.980;30.346;2023-04-04T06:28:49;102161.44;;;0.00;94.70
66021;BME280;52789;59.980;30.346;2023-04-04T06:31:15;102149.41;;;-0.06;94.46
66021;BME280;52789;59.980;30.346;2023-04-04T06:33:41;102153.66;;;-0.03;94.94
66021;BME280;52789;59.980;30.346;2023-04-04T06:36:06;102148.81;;;0.10;94.96
66021;BME280;52789;59.980;30.346;2023-04-04T06:38:31;102142.94;;;0.25;94.72
66021;BME280;52789;59.980;30.346;2023-04-04T06:40:57;102153.84;;;0.36;94.07
66021;BME280;52789;59.980;30.346;2023-04-04T06:43:22;102152.22;;;0.34;92.17
66021;BME280;52789;59.980;30.346;2023-04-04T06:45:48;102145.38;;;0.29;92.28
66021;BME280;52789;59.980;30.346;2023-04-04T06:48:13;102145.63;;;0.23;92.56
66021;BME280;52789;59.980;30.346;2023-04-04T06:50:39;102141.78;;;0.32;92.46
66021;BME280;52789;59.980;30.346;2023-04-04T06:53:04;102148.00;;;0.50;91.71
66021;BME280;52789;59.980;30.346;2023-04-04T06:55:31;102139.81;;;0.57;91.31
66021;BME280;52789;59.980;30.346;2023-04-04T06:57:57;102138.97;;;0.57;91.04
66021;BME280;52789;59.980;30.346;2023-04-04T07:00:22;102139.44;;;0.67;91.19
66021;BME280;52789;59.980;30.346;2023-04-04T07:02:47;102144.91;;;0.62;90.37
66021;BME280;52789;59.980;30.346;2023-04-04T07:05:13;102151.63;;;0.47;90.25
66021;BME280;52789;59.980;30.346;2023-04-04T07:07:41;102138.06;;;0.38;91.07
66021;BME280;52789;59.980;30.346;2023-04-04T07:10:07;102135.16;;;0.44;91.09
66021;BME280;52789;59.980;30.346;2023-04-04T07:12:32;102138.38;;;0.50;91.46
66021;BME280;52789;59.980;30.346;2023-04-04T07:14:58;102136.63;;;0.71;91.76
66021;BME280;52789;59.980;30.346;2023-04-04T07:17:23;102138.31;;;0.92;91.68
66021;BME280;52789;59.980;30.346;2023-04-04T07:19:49;102136.09;;;0.83;89.29
66021;BME280;52789;59.980;30.346;2023-04-04T07:22:14;102138.19;;;0.75;89.99
66021;BME280;52789;59.980;30.346;2023-04-04T07:24:39;102140.34;;;0.86;90.33
66021;BME280;52789;59.980;30.346;2023-04-04T07:27:05;102142.50;;;1.17;90.51
66021;BME280;52789;59.980;30.346;2023-04-04T07:29:31;102148.03;;;1.30;88.38
66021;BME280;52789;59.980;30.346;2023-04-04T07:31:57;102146.13;;;1.33;88.67
66021;BME280;52789;59.980;30.346;2023-04-04T07:34:22;102146.75;;;1.38;87.82
66021;BME280;52789;59.980;30.346;2023-04-04T07:36:49;102148.47;;;1.39;88.24
66021;BME280;52789;59.980;30.346;2023-04-04T07:39:15;102145.97;;;1.36;88.45
66021;BME280;52789;59.980;30.346;2023-04-04T07:41:41;102156.63;;;1.33;87.63
66021;BME280;52789;59.980;30.346;2023-04-04T07:44:07;102143.34;;;1.17;88.42
66021;BME280;52789;59.980;30.346;2023-04-04T07:46:32;102146.41;;;1.27;89.15
66021;BME280;52789;59.980;30.346;2023-04-04T07:49:01;102149.06;;;1.46;88.49
66021;BME280;52789;59.980;30.346;2023-04-04T07:51:26;102144.38;;;1.52;87.39
66021;BME280;52789;59.980;30.346;2023-04-04T07:53:55;102150.97;;;1.80;87.28
66021;BME280;52789;59.980;30.346;2023-04-04T07:56:21;102148.09;;;2.03;86.91
66021;BME280;52789;59.980;30.346;2023-04-04T07:58:46;102150.13;;;2.15;86.13
66021;BME280;52789;59.980;30.346;2023-04-04T08:01:12;102159.19;;;2.44;86.00
66021;BME280;52789;59.980;30.346;2023-04-04T08:03:37;102151.22;;;2.46;84.33
66021;BME280;52789;59.980;30.346;2023-04-04T08:06:03;102148.47;;;2.32;84.37
66021;BME280;52789;59.980;30.346;2023-04-04T08:08:28;102156.25;;;2.33;84.73
66021;BME280;52789;59.980;30.346;2023-04-04T08:10:54;102171.63;;;2.24;84.56
66021;BME280;52789;59.980;30.346;2023-04-04T08:13:19;102163.09;;;2.18;86.00
66021;BME280;52789;59.980;30.346;2023-04-04T08:15:44;102154.28;;;2.20;85.31
66021;BME280;52789;59.980;30.346;2023-04-04T08:18:10;102155.47;;;2.31;85.80
66021;BME280;52789;59.980;30.346;2023-04-04T08:20:35;102161.38;;;2.36;84.50
66021;BME280;52789;59.980;30.346;2023-04-04T08:23:01;102170.53;;;2.10;84.83
66021;BME280;52789;59.980;30.346;2023-04-04T08:25:26;102164.84;;;2.01;85.95
66021;BME280;52789;59.980;30.346;2023-04-04T08:27:51;102158.16;;;2.12;86.42
66021;BME280;52789;59.980;30.346;2023-04-04T08:30:17;102167.28;;;2.23;86.46
66021;BME280;52789;59.980;30.346;2023-04-04T08:32:43;102160.56;;;2.17;84.99
66021;BME280;52789;59.980;30.346;2023-04-04T08:35:10;102164.81;;;2.20;85.35
66021;BME280;52789;59.980;30.346;2023-04-04T08:37:35;102168.38;;;2.18;84.87
66021;BME280;52789;59.980;30.346;2023-04-04T08:40:02;102167.34;;;2.21;84.79
66021;BME280;52789;59.980;30.346;2023-04-04T08:42:29;102171.38;;;2.11;86.32
66021;BME280;52789;59.980;30.346;2023-04-04T08:44:56;102168.66;;;2.12;85.53
66021;BME280;52789;59.980;30.346;2023-04-04T08:47:23;102179.19;;;2.12;85.98
66021;BME280;52789;59.980;30.346;2023-04-04T08:49:49;102164.66;;;2.23;85.46
66021;BME280;52789;59.980;30.346;2023-04-04T08:52:16;102174.44;;;2.38;85.77
66021;BME280;52789;59.980;30.346;2023-04-04T08:54:43;102163.44;;;2.47;83.81
66021;BME280;52789;59.980;30.346;2023-04-04T08:57:09;102172.72;;;2.37;82.95
66021;BME280;52789;59.980;30.346;2023-04-04T08:59:34;102170.22;;;2.16;83.57
66021;BME280;52789;59.980;30.346;2023-04-04T09:02:03;102167.38;;;2.02;84.25
66021;BME280;52789;59.980;30.346;2023-04-04T09:04:30;102169.50;;;2.13;85.43
66021;BME280;52789;59.980;30.346;2023-04-04T09:06:56;102162.75;;;2.43;85.03
66021;BME280;52789;59.980;30.346;2023-04-04T09:09:21;102170.44;;;2.65;83.97
66021;BME280;52789;59.980;30.346;2023-04-04T09:11:47;102161.31;;;2.90;82.90
66021;BME280;52789;59.980;30.346;2023-04-04T09:14:13;102165.91;;;3.02;82.02
66021;BME280;52789;59.980;30.346;2023-04-04T09:16:38;102166.41;;;2.93;81.71
66021;BME280;52789;59.980;30.346;2023-04-04T09:19:04;102169.50;;;2.66;81.68
66021;BME280;52789;59.980;30.346;2023-04-04T09:21:31;102168.72;;;2.47;82.24
66021;BME280;52789;59.980;30.346;2023-04-04T09:23:57;102168.25;;;2.56;83.19
66021;BME280;52789;59.980;30.346;2023-04-04T09:26:23;102162.84;;;2.76;82.73
66021;BME280;52789;59.980;30.346;2023-04-04T09:28:52;102169.97;;;2.92;81.77
66021;BME280;52789;59.980;30.346;2023-04-04T09:31:17;102168.56;;;2.85;80.64
66021;BME280;52789;59.980;30.346;2023-04-04T09:33:43;102158.03;;;2.85;80.71
66021;BME280;52789;59.980;30.346;2023-04-04T09:36:09;102167.00;;;2.80;81.02
66021;BME280;52789;59.980;30.346;2023-04-04T09:38:36;102168.41;;;2.70;80.87
66021;BME280;52789;59.980;30.346;2023-04-04T09:41:05;102166.19;;;2.63;80.50
66021;BME280;52789;59.980;30.346;2023-04-04T09:43:30;102169.34;;;2.69;80.22
66021;BME280;52789;59.980;30.346;2023-04-04T09:45:56;102167.34;;;2.74;79.27
66021;BME280;52789;59.980;30.346;2023-04-04T09:48:25;102164.56;;;2.60;80.09
66021;BME280;52789;59.980;30.346;2023-04-04T09:50:51;102173.06;;;2.65;80.79
66021;BME280;52789;59.980;30.346;2023-04-04T09:53:17;102162.91;;;2.75;80.82
66021;BME280;52789;59.980;30.346;2023-04-04T09:55:47;102163.94;;;2.72;80.19
66021;BME280;52789;59.980;30.346;2023-04-04T09:58:14;102167.81;;;2.65;80.84
66021;BME280;52789;59.980;30.346;2023-04-04T10:00:40;102163.41;;;2.66;81.20
66021;BME280;52789;59.980;30.346;2023-04-04T10:03:07;102160.22;;;2.76;81.11
66021;BME280;52789;59.980;30.346;2023-04-04T10:05:32;102164.06;;;2.87;80.15
66021;BME280;52789;59.980;30.346;2023-04-04T10:07:58;102163.00;;;2.91;79.07
66021;BME280;52789;59.980;30.346;2023-04-04T10:10:26;102166.56;;;2.90;80.17
66021;BME280;52789;59.980;30.346;2023-04-04T10:12:52;102182.81;;;2.98;80.41
66021;BME280;52789;59.980;30.346;2023-04-04T10:15:18;102171.59;;;2.94;80.05
66021;BME280;52789;59.980;30.346;2023-04-04T10:17:46;102176.44;;;3.19;80.17
66021;BME280;52789;59.980;30.346;2023-04-04T10:20:12;102178.72;;;3.25;79.61
66021;BME280;52789;59.980;30.346;2023-04-04T10:22:37;102186.06;;;3.36;79.46
66021;BME280;52789;59.980;30.346;2023-04-04T10:25:04;102175.59;;;3.34;80.60
66021;BME280;52789;59.980;30.346;2023-04-04T10:27:30;102179.03;;;3.52;80.25
66021;BME280;52789;59.980;30.346;2023-04-04T10:29:56;102183.56;;;3.66;80.18
66021;BME280;52789;59.980;30.346;2023-04-04T10:32:32;102176.00;;;3.76;79.09
66021;BME280;52789;59.980;30.346;2023-04-04T10:35:03;102185.25;;;3.67;79.29
66021;BME280;52789;59.980;30.346;2023-04-04T10:37:42;102191.78;;;3.60;79.51
66021;BME280;52789;59.980;30.346;2023-04-04T10:40:15;102186.41;;;3.46;80.61
66021;BME280;52789;59.980;30.346;2023-04-04T10:42:41;102189.66;;;3.51;80.57
66021;BME280;52789;59.980;30.346;2023-04-04T10:45:08;102184.47;;;3.49;81.27
66021;BME280;52789;59.980;30.346;2023-04-04T10:47:36;102186.69;;;3.57;81.34
66021;BME280;52789;59.980;30.346;2023-04-04T10:50:03;102182.78;;;3.48;81.82
66021;BME280;52789;59.980;30.346;2023-04-04T10:52:34;102185.63;;;3.43;81.90
66021;BME280;52789;59.980;30.346;2023-04-04T10:55:04;102187.81;;;3.53;81.93
66021;BME280;52789;59.980;30.346;2023-04-04T10:57:36;102190.25;;;3.56;80.74
66021;BME280;52789;59.980;30.346;2023-04-04T11:00:24;102187.47;;;3.59;81.13
66021;BME280;52789;59.980;30.346;2023-04-04T11:02:57;102187.47;;;3.59;81.24
66021;BME280;52789;59.980;30.346;2023-04-04T11:05:24;102188.22;;;3.61;81.39
66021;BME280;52789;59.980;30.346;2023-04-04T11:10:30;102192.78;;;3.41;82.14
66021;BME280;52789;59.980;30.346;2023-04-04T11:12:56;102188.75;;;3.34;82.68
66021;BME280;52789;59.980;30.346;2023-04-04T11:15:28;102198.25;;;3.21;82.72
66021;BME280;52789;59.980;30.346;2023-04-04T11:18:09;102187.91;;;2.84;84.09
66021;BME280;52789;59.980;30.346;2023-04-04T11:20:36;102187.13;;;2.47;85.96
66021;BME280;52789;59.980;30.346;2023-04-04T11:23:15;102195.84;;;2.47;88.25
66021;BME280;52789;59.980;30.346;2023-04-04T11:25:48;102189.91;;;2.44;86.63
66021;BME280;52789;59.980;30.346;2023-04-04T11:28:24;102197.47;;;2.33;88.29
66021;BME280;52789;59.980;30.346;2023-04-04T11:31:21;102191.44;;;2.48;88.01
66021;BME280;52789;59.980;30.346;2023-04-04T11:33:35;102197.03;;;2.59;86.69
66021;BME280;52789;59.980;30.346;2023-04-04T11:39:05;102196.66;;;2.67;85.90
66021;BME280;52789;59.980;30.346;2023-04-04T11:44:11;102194.34;;;2.61;86.19
66021;BME280;52789;59.980;30.346;2023-04-04T11:46:36;102198.59;;;2.63;86.00
66021;BME280;52789;59.980;30.346;2023-04-04T11:49:02;102198.19;;;2.71;85.86
66021;BME280;52789;59.980;30.346;2023-04-04T11:51:27;102195.72;;;2.85;85.01
66021;BME280;52789;59.980;30.346;2023-04-04T11:53:54;102179.69;;;2.55;84.54
66021;BME280;52789;59.980;30.346;2023-04-04T11:56:19;102181.00;;;2.46;85.35
66021;BME280;52789;59.980;30.346;2023-04-04T11:58:48;102187.16;;;2.28;85.80
66021;BME280;52789;59.980;30.346;2023-04-04T12:01:13;102182.91;;;2.26;85.55
66021;BME280;52789;59.980;30.346;2023-04-04T12:03:40;102191.25;;;2.16;85.51
66021;BME280;52789;59.980;30.346;2023-04-04T12:06:06;102187.06;;;2.12;86.93
66021;BME280;52789;59.980;30.346;2023-04-04T12:08:31;102198.97;;;2.20;86.09
66021;BME280;52789;59.980;30.346;2023-04-04T12:10:58;102201.28;;;2.08;86.51
66021;BME280;52789;59.980;30.346;2023-04-04T12:13:30;102192.97;;;1.99;85.95
66021;BME280;52789;59.980;30.346;2023-04-04T12:15:56;102193.47;;;1.88;86.28
66021;BME280;52789;59.980;30.346;2023-04-04T12:18:21;102196.53;;;1.79;86.44
66021;BME280;52789;59.980;30.346;2023-04-04T12:20:47;102185.66;;;1.68;86.41
66021;BME280;52789;59.980;30.346;2023-04-04T12:23:13;102192.84;;;1.64;87.07
66021;BME280;52789;59.980;30.346;2023-04-04T12:25:38;102186.97;;;1.78;86.65
66021;BME280;52789;59.980;30.346;2023-04-04T12:28:08;102186.50;;;1.87;86.60
66021;BME280;52789;59.980;30.346;2023-04-04T12:30:35;102193.13;;;1.77;86.52
66021;BME280;52789;59.980;30.346;2023-04-04T12:33:00;102182.03;;;1.70;86.73
66021;BME280;52789;59.980;30.346;2023-04-04T12:35:26;102189.72;;;1.75;86.88
66021;BME280;52789;59.980;30.346;2023-04-04T12:37:58;102201.09;;;1.75;86.26
66021;BME280;52789;59.980;30.346;2023-04-04T12:40:27;102193.97;;;1.59;86.92
66021;BME280;52789;59.980;30.346;2023-04-04T12:42:52;102200.16;;;1.58;87.24
66021;BME280;52789;59.980;30.346;2023-04-04T12:45:24;102197.38;;;1.61;87.13
66021;BME280;52789;59.980;30.346;2023-04-04T12:47:53;102191.97;;;1.64;87.09